Time;durP1;ratioP1;P1;durP2;ratioP2;P2;SDS_P1;SDS_P2;PMS_P1;PMS_P2;Temp;Humidity;BMP_temperature;BMP_pressure;BME280_temperature;BME280_humidity;BME280_pressure;Samples;Min_cycle;Max_cycle;Signal;HPM_P1;HPM_P2
2024/03/12 00:01:03;;;;;;;7.15;5.78;;;7.30;99.90;;;;;;5094626;28;20289;-62
2024/03/12 00:03:30;;;;;;;8.30;6.65;;;7.30;99.90;;;;;;5095945;28;20251;-62
2024/03/12 00:05:59;;;;;;;5.95;4.80;;;7.20;99.90;;;;;;5095185;28;20200;-62
2024/03/12 00:08:27;;;;;;;6.38;5.30;;;7.20;99.90;;;;;;5094684;28;20200;-62
2024/03/12 00:10:54;;;;;;;7.30;6.38;;;7.20;99.90;;;;;;5094704;28;20537;-61
2024/03/12 00:13:23;;;;;;;7.88;5.43;;;7.20;99.90;;;;;;5094113;28;20604;-63
2024/03/12 00:15:50;;;;;;;8.32;5.20;;;7.20;99.90;;;;;;5095607;28;20240;-62
2024/03/12 00:18:16;;;;;;;6.60;5.28;;;7.10;99.90;;;;;;5095415;28;20216;-61
2024/03/12 00:20:45;;;;;;;5.97;5.00;;;7.10;99.90;;;;;;5094894;28;20204;-63
2024/03/12 00:23:12;;;;;;;6.18;5.05;;;7.10;99.90;;;;;;5095443;28;20706;-62
2024/03/12 00:25:40;;;;;;;9.50;5.47;;;7.10;99.90;;;;;;5095411;28;20206;-62
2024/03/12 00:28:08;;;;;;;8.52;5.60;;;7.20;99.90;;;;;;5096154;28;20617;-61
2024/03/12 00:30:40;;;;;;;6.20;5.60;;;7.30;99.90;;;;;;5102687;28;20210;-61
2024/03/12 00:33:07;;;;;;;7.93;5.50;;;7.40;99.90;;;;;;5103837;28;20670;-62
2024/03/12 00:35:35;;;;;;;8.80;5.53;;;7.50;99.90;;;;;;5101204;28;20229;-62
2024/03/12 00:38:03;;;;;;;7.03;5.38;;;7.60;99.90;;;;;;5099265;28;20697;-62
2024/03/12 00:40:33;;;;;;;9.10;5.93;;;7.70;99.90;;;;;;5101349;28;20243;-62
2024/03/12 00:43:00;;;;;;;7.40;6.20;;;7.80;99.90;;;;;;5105528;28;20224;-62
2024/03/12 00:45:36;;;;;;;7.63;6.38;;;7.90;99.90;;;;;;5106026;28;20258;-63
2024/03/12 00:48:05;;;;;;;8.38;5.80;;;8.00;99.90;;;;;;5101377;28;20180;-62
2024/03/12 00:50:32;;;;;;;8.05;6.00;;;8.10;99.90;;;;;;5099403;28;20660;-62
2024/03/12 00:53:01;;;;;;;6.82;5.80;;;8.10;99.90;;;;;;5098336;28;20581;-61
2024/03/12 00:55:28;;;;;;;8.82;6.28;;;8.20;99.90;;;;;;5097499;28;20295;-62
2024/03/12 00:57:55;;;;;;;7.18;6.05;;;8.20;99.90;;;;;;5097936;28;20656;-63
2024/03/12 01:00:25;;;;;;;7.55;4.82;;;8.30;99.90;;;;;;5097400;28;20207;-62
2024/03/12 01:02:53;;;;;;;6.90;6.00;;;8.30;99.90;;;;;;5097818;28;20228;-61
2024/03/12 01:05:24;;;;;;;9.23;5.68;;;8.30;99.90;;;;;;5097999;28;20223;-62
2024/03/12 01:07:53;;;;;;;6.72;5.60;;;8.40;99.90;;;;;;5097877;28;20204;-61
2024/03/12 01:10:21;;;;;;;9.20;5.72;;;8.40;99.90;;;;;;5097953;28;20196;-62
2024/03/12 01:12:48;;;;;;;6.93;5.25;;;8.40;99.90;;;;;;5097320;28;20228;-61
2024/03/12 01:15:15;;;;;;;6.38;4.78;;;8.40;99.90;;;;;;5097506;28;20199;-63
2024/03/12 01:17:42;;;;;;;8.13;6.00;;;8.40;99.90;;;;;;5097449;28;20314;-61
2024/03/12 01:20:09;;;;;;;8.85;5.90;;;8.50;99.90;;;;;;5097917;28;20628;-61
2024/03/12 01:22:38;;;;;;;7.80;6.25;;;8.50;99.90;;;;;;5097826;28;20635;-61
2024/03/12 01:25:06;;;;;;;6.60;5.45;;;8.50;99.90;;;;;;5099126;28;20296;-62
2024/03/12 01:27:34;;;;;;;7.45;6.10;;;8.50;99.90;;;;;;5098284;28;20218;-61
2024/03/12 01:30:06;;;;;;;8.23;5.60;;;8.50;99.90;;;;;;5097660;28;20204;-62
2024/03/12 01:32:33;;;;;;;8.98;5.80;;;8.50;99.90;;;;;;5097363;28;20227;-61
2024/03/12 01:35:00;;;;;;;8.00;6.20;;;8.50;99.90;;;;;;5096200;28;20580;-62
2024/03/12 01:37:29;;;;;;;6.65;5.30;;;8.50;99.90;;;;;;5097941;28;20200;-61
2024/03/12 01:39:57;;;;;;;7.90;5.72;;;8.50;99.90;;;;;;5096183;28;20678;-61
2024/03/12 01:42:24;;;;;;;8.38;6.20;;;8.50;99.90;;;;;;5097216;28;20217;-61
2024/03/12 01:44:51;;;;;;;7.70;5.78;;;8.50;99.90;;;;;;5096904;28;20209;-62
2024/03/12 01:47:18;;;;;;;8.38;5.90;;;8.50;99.90;;;;;;5096678;28;20200;-62
2024/03/12 01:49:48;;;;;;;8.20;5.75;;;8.50;99.90;;;;;;5096469;28;20204;-62
2024/03/12 01:52:16;;;;;;;6.95;5.72;;;8.40;99.90;;;;;;5096476;28;20224;-62
2024/03/12 01:54:43;;;;;;;8.05;5.90;;;8.40;99.90;;;;;;5095969;28;20211;-62
2024/03/12 01:57:12;;;;;;;12.30;6.32;;;8.30;99.90;;;;;;5097087;28;20200;-61
2024/03/12 01:59:38;;;;;;;7.78;6.22;;;8.30;99.90;;;;;;5097010;28;20247;-61
2024/03/12 02:02:06;;;;;;;7.97;5.80;;;8.30;99.90;;;;;;5096172;28;20228;-62
2024/03/12 02:04:34;;;;;;;6.63;6.03;;;8.30;99.90;;;;;;5096462;28;20227;-62
2024/03/12 02:07:00;;;;;;;7.07;5.80;;;8.20;99.90;;;;;;5095761;28;20235;-62
2024/03/12 02:09:27;;;;;;;7.53;5.50;;;8.20;99.90;;;;;;5096272;28;20204;-62
2024/03/12 02:11:54;;;;;;;7.80;5.70;;;8.20;99.90;;;;;;5096084;28;20227;-62
2024/03/12 02:14:22;;;;;;;9.82;5.95;;;8.10;99.90;;;;;;5097569;28;20208;-62
2024/03/12 02:16:50;;;;;;;6.65;5.47;;;8.10;99.90;;;;;;5096664;28;20219;-62
2024/03/12 02:19:18;;;;;;;7.22;6.00;;;8.00;99.90;;;;;;5096197;28;20220;-62
2024/03/12 02:21:45;;;;;;;7.63;6.10;;;8.00;99.90;;;;;;5096957;28;20224;-62
2024/03/12 02:24:13;;;;;;;9.13;6.18;;;8.00;99.90;;;;;;5096315;28;20310;-62
2024/03/12 02:26:39;;;;;;;7.50;6.05;;;7.90;99.90;;;;;;5096124;28;20200;-62
2024/03/12 02:29:07;;;;;;;6.60;5.95;;;7.90;99.90;;;;;;5096684;28;20284;-62
2024/03/12 02:31:34;;;;;;;6.95;5.57;;;7.80;99.90;;;;;;5096390;28;20220;-62
2024/03/12 02:34:01;;;;;;;7.88;6.15;;;7.80;99.90;;;;;;5095830;28;20705;-61
2024/03/12 02:36:28;;;;;;;6.90;5.68;;;7.80;99.90;;;;;;5095958;28;20204;-62
2024/03/12 02:38:54;;;;;;;8.13;6.13;;;7.80;99.90;;;;;;5095409;28;20721;-62
2024/03/12 02:41:22;;;;;;;6.70;5.63;;;7.70;99.90;;;;;;5096233;28;20235;-63
2024/03/12 02:43:51;;;;;;;7.40;6.28;;;7.70;99.90;;;;;;5095427;28;20200;-61
2024/03/12 02:46:20;;;;;;;8.18;6.85;;;7.70;99.90;;;;;;5095597;28;20200;-62
2024/03/12 02:48:46;;;;;;;7.45;5.75;;;7.70;99.90;;;;;;5096404;28;20197;-62
2024/03/12 02:51:13;;;;;;;9.88;6.95;;;7.70;99.90;;;;;;5099820;28;20205;-64
2024/03/12 02:53:40;;;;;;;7.63;5.63;;;7.60;99.90;;;;;;5101451;28;20208;-61
2024/03/12 02:56:07;;;;;;;9.85;5.95;;;7.70;99.90;;;;;;5097671;28;20202;-62
2024/03/12 02:58:36;;;;;;;6.05;5.45;;;7.70;99.90;;;;;;5096112;28;20220;-62
2024/03/12 03:01:03;;;;;;;7.47;6.53;;;7.70;99.90;;;;;;5095996;28;20204;-62
2024/03/12 03:03:30;;;;;;;9.35;6.53;;;7.70;99.90;;;;;;5095396;28;20239;-61
2024/03/12 03:05:56;;;;;;;7.28;5.28;;;7.80;99.90;;;;;;5095148;28;20206;-61
2024/03/12 03:08:23;;;;;;;7.35;5.68;;;7.80;99.90;;;;;;5095345;28;20205;-61
2024/03/12 03:10:50;;;;;;;7.95;6.03;;;7.80;99.90;;;;;;5096961;28;20200;-61
2024/03/12 03:13:16;;;;;;;7.85;6.20;;;7.80;99.90;;;;;;5098250;28;20224;-62
2024/03/12 03:15:45;;;;;;;7.07;5.88;;;7.90;99.90;;;;;;5096474;28;20200;-62
2024/03/12 03:18:13;;;;;;;7.00;6.28;;;7.90;99.90;;;;;;5096535;28;20220;-61
2024/03/12 03:20:40;;;;;;;6.32;5.28;;;7.80;99.90;;;;;;5095702;28;20220;-62
2024/03/12 03:23:06;;;;;;;7.30;5.65;;;7.80;99.90;;;;;;5095003;28;20220;-61
2024/03/12 03:25:33;;;;;;;6.10;5.05;;;7.80;99.90;;;;;;5094763;28;20573;-62
2024/03/12 03:28:00;;;;;;;5.70;4.63;;;7.80;99.90;;;;;;5094418;28;20222;-62
2024/03/12 03:30:27;;;;;;;7.68;6.25;;;7.80;99.90;;;;;;5094755;28;20222;-62
2024/03/12 03:32:55;;;;;;;7.22;5.60;;;7.80;99.90;;;;;;5094270;28;20240;-61
2024/03/12 03:35:22;;;;;;;7.22;5.32;;;7.80;99.90;;;;;;5094113;28;20254;-62
2024/03/12 03:37:49;;;;;;;7.78;5.43;;;7.80;99.90;;;;;;5093913;28;20200;-62
2024/03/12 03:40:22;;;;;;;6.35;5.57;;;7.80;99.90;;;;;;5093903;28;20698;-62
2024/03/12 03:42:51;;;;;;;7.68;5.10;;;7.90;99.90;;;;;;5095141;28;20224;-62
2024/03/12 03:45:19;;;;;;;6.50;5.25;;;7.90;99.90;;;;;;5094815;28;20200;-61
2024/03/12 03:47:45;;;;;;;5.82;5.22;;;7.90;99.90;;;;;;5095163;28;20204;-61
2024/03/12 03:50:13;;;;;;;6.18;5.18;;;7.90;99.90;;;;;;5094728;28;20216;-61
2024/03/12 03:52:41;;;;;;;8.02;5.38;;;8.00;99.90;;;;;;5094815;28;20231;-61
2024/03/12 03:55:09;;;;;;;9.05;6.60;;;8.00;99.90;;;;;;5094863;28;20205;-62
2024/03/12 03:57:36;;;;;;;7.80;6.10;;;8.00;99.90;;;;;;5093480;28;20542;-62
2024/03/12 04:00:03;;;;;;;8.60;6.30;;;8.00;99.90;;;;;;5094036;28;20701;-61
2024/03/12 04:02:30;;;;;;;11.35;6.25;;;8.00;99.90;;;;;;5093391;28;20768;-61
2024/03/12 04:04:57;;;;;;;7.85;5.47;;;8.00;99.90;;;;;;5093614;28;20214;-62
2024/03/12 04:07:25;;;;;;;7.65;5.57;;;7.90;99.90;;;;;;5095988;28;20204;-62
2024/03/12 04:13:20;;;;;;;7.55;5.90;;;7.90;99.90;;;;;;5156459;27;20627;-62
2024/03/12 04:15:47;;;;;;;7.93;5.80;;;7.80;99.90;;;;;;5134953;28;20198;-63
2024/03/12 04:18:16;;;;;;;7.68;6.00;;;7.80;99.90;;;;;;5134882;28;20207;-62
2024/03/12 04:20:43;;;;;;;6.28;5.63;;;7.70;99.90;;;;;;5135019;28;20195;-62
2024/03/12 04:23:10;;;;;;;6.63;5.93;;;7.70;99.90;;;;;;5138645;27;20237;-62
2024/03/12 04:25:37;;;;;;;6.80;5.95;;;7.70;99.90;;;;;;5137675;28;20199;-62
2024/03/12 04:28:04;;;;;;;6.97;5.53;;;7.70;99.90;;;;;;5135667;28;20202;-62
2024/03/12 04:30:34;;;;;;;7.18;5.35;;;7.70;99.90;;;;;;5136265;28;20290;-62
2024/03/12 04:33:01;;;;;;;5.72;5.10;;;7.70;99.90;;;;;;5137968;27;20738;-62
2024/03/12 04:35:28;;;;;;;8.10;6.50;;;7.70;99.90;;;;;;5137468;27;20266;-62
2024/03/12 04:37:55;;;;;;;5.82;4.82;;;7.80;99.90;;;;;;5136318;28;20199;-61
2024/03/12 04:40:22;;;;;;;6.15;5.55;;;7.80;99.90;;;;;;5136393;28;20227;-62
2024/03/12 04:42:49;;;;;;;6.75;5.93;;;7.80;99.90;;;;;;5137058;27;20211;-62
2024/03/12 04:45:16;;;;;;;6.70;5.90;;;7.80;99.90;;;;;;5140348;28;20278;-62
2024/03/12 04:47:44;;;;;;;6.35;5.68;;;7.80;99.90;;;;;;5137882;28;20203;-61
2024/03/12 04:50:13;;;;;;;8.50;6.00;;;7.90;99.90;;;;;;5135711;28;20222;-61
2024/03/12 04:52:40;;;;;;;9.38;5.85;;;7.90;99.90;;;;;;5136169;27;20219;-62
2024/03/12 04:55:07;;;;;;;7.28;6.15;;;7.90;99.90;;;;;;5136941;28;20207;-62
2024/03/12 04:57:35;;;;;;;7.10;5.90;;;7.90;99.90;;;;;;5136431;28;20232;-62
2024/03/12 05:00:03;;;;;;;9.63;6.00;;;7.90;99.90;;;;;;5134435;28;20670;-62
2024/03/12 05:02:30;;;;;;;5.60;5.10;;;7.90;99.90;;;;;;5137061;27;20212;-62
2024/03/12 05:04:58;;;;;;;6.55;5.70;;;7.90;99.90;;;;;;5136295;28;20207;-61
2024/03/12 05:07:25;;;;;;;8.38;6.10;;;7.90;99.90;;;;;;5139275;28;20551;-62
2024/03/12 05:09:52;;;;;;;5.90;5.07;;;7.90;99.90;;;;;;5142499;28;20203;-62
2024/03/12 05:12:18;;;;;;;7.68;5.53;;;7.90;99.90;;;;;;5142757;27;20226;-62
2024/03/12 05:14:45;;;;;;;8.32;5.85;;;7.90;99.90;;;;;;5141661;28;20214;-62
2024/03/12 05:17:12;;;;;;;7.78;5.55;;;7.90;99.90;;;;;;5139291;28;20203;-61
2024/03/12 05:19:39;;;;;;;8.02;5.40;;;7.90;99.90;;;;;;5140842;28;20203;-65
2024/03/12 05:22:07;;;;;;;7.40;5.20;;;7.90;99.90;;;;;;5136149;27;20221;-62
2024/03/12 05:24:35;;;;;;;8.27;5.45;;;7.80;99.90;;;;;;5121677;28;20203;-61
2024/03/12 05:27:02;;;;;;;6.80;5.53;;;7.80;99.90;;;;;;5121894;28;20204;-61
2024/03/12 05:29:36;;;;;;;8.60;6.03;;;7.90;99.90;;;;;;5121247;28;20261;-60
2024/03/12 05:32:17;;;;;;;9.52;6.20;;;7.80;99.90;;;;;;5123129;28;20242;-61
2024/03/12 05:34:45;;;;;;;7.43;5.95;;;7.80;99.90;;;;;;5121950;28;20187;-61
2024/03/12 05:37:28;;;;;;;8.52;6.00;;;7.80;99.90;;;;;;5125646;28;20669;-62
2024/03/12 05:40:11;;;;;;;8.80;5.80;;;7.80;99.90;;;;;;5131864;28;20188;-62
2024/03/12 05:48:10;;;;;;;8.07;6.18;;;7.80;99.90;;;;;;5126745;28;20186;-61
2024/03/12 05:50:38;;;;;;;7.78;5.55;;;7.90;99.90;;;;;;5124094;28;20188;-61
2024/03/12 05:53:06;;;;;;;6.22;5.53;;;7.90;99.90;;;;;;5125199;28;20223;-61
2024/03/12 05:55:33;;;;;;;7.50;5.82;;;7.90;99.90;;;;;;5122984;28;20211;-62
2024/03/12 05:58:00;;;;;;;6.28;5.60;;;7.90;99.90;;;;;;5123981;28;20223;-61
2024/03/12 06:00:27;;;;;;;8.20;6.43;;;7.90;99.90;;;;;;5123414;28;20206;-62
2024/03/12 06:02:54;;;;;;;10.55;7.07;;;7.80;99.90;;;;;;5126484;28;20222;-61
2024/03/12 06:05:21;;;;;;;8.95;7.22;;;7.90;99.90;;;;;;5124137;28;20212;-60
2024/03/12 06:07:48;;;;;;;11.18;7.00;;;7.90;99.90;;;;;;5123738;28;20211;-61
2024/03/12 06:10:17;;;;;;;10.98;6.72;;;7.90;99.90;;;;;;5123862;28;20199;-62
2024/03/12 06:12:44;;;;;;;10.18;7.07;;;7.90;99.90;;;;;;5127986;28;20227;-62
2024/03/12 06:15:11;;;;;;;9.80;6.65;;;7.90;99.90;;;;;;5127912;28;20196;-61
2024/03/12 06:17:37;;;;;;;9.40;6.47;;;8.00;99.90;;;;;;5124313;28;20200;-63
2024/03/12 06:20:05;;;;;;;7.97;6.65;;;8.00;99.90;;;;;;5125128;28;20286;-62
2024/03/12 06:22:32;;;;;;;8.48;6.40;;;8.00;99.90;;;;;;5124466;28;20216;-61
2024/03/12 06:25:00;;;;;;;8.70;6.82;;;8.00;99.90;;;;;;5127422;28;20203;-62
2024/03/12 06:27:29;;;;;;;8.50;7.13;;;8.00;99.90;;;;;;5126961;28;20256;-63
2024/03/12 06:29:56;;;;;;;7.63;6.55;;;8.10;99.90;;;;;;5124891;28;20657;-63
2024/03/12 06:32:25;;;;;;;8.40;5.82;;;8.10;99.90;;;;;;5126757;28;20272;-62
2024/03/12 06:34:51;;;;;;;9.15;6.78;;;8.10;99.90;;;;;;5126942;28;20204;-61
2024/03/12 06:37:18;;;;;;;7.57;6.55;;;8.10;99.90;;;;;;5127891;28;20199;-61
2024/03/12 06:39:46;;;;;;;7.70;6.47;;;8.10;99.90;;;;;;5127891;28;20252;-63
2024/03/12 06:42:13;;;;;;;6.82;5.50;;;8.10;99.90;;;;;;5126743;28;20220;-62
2024/03/12 06:44:43;;;;;;;9.55;6.63;;;8.10;99.90;;;;;;5127377;28;20200;-61
2024/03/12 06:47:11;;;;;;;9.15;7.65;;;8.10;99.90;;;;;;5126434;28;20187;-62
2024/03/12 06:49:38;;;;;;;10.25;7.25;;;8.10;99.90;;;;;;5127125;28;20221;-62
2024/03/12 06:52:06;;;;;;;8.05;6.55;;;8.10;99.90;;;;;;5126881;28;20246;-62
2024/03/12 06:54:34;;;;;;;8.27;6.60;;;8.10;99.90;;;;;;5126599;28;20405;-62
2024/03/12 06:57:03;;;;;;;11.38;7.82;;;8.10;99.90;;;;;;5126476;28;20204;-60
2024/03/12 06:59:30;;;;;;;9.95;7.53;;;8.10;99.90;;;;;;5125527;28;20210;-61
2024/03/12 07:01:58;;;;;;;9.50;6.70;;;8.20;99.90;;;;;;5125518;28;20257;-62
2024/03/12 07:04:34;;;;;;;12.90;8.13;;;8.20;99.90;;;;;;5124750;28;20199;-62
2024/03/12 07:07:03;;;;;;;10.20;7.63;;;8.20;99.90;;;;;;5125460;28;20251;-61
2024/03/12 07:09:31;;;;;;;10.77;8.60;;;8.30;99.90;;;;;;5125893;28;20204;-62
2024/03/12 07:11:58;;;;;;;9.15;7.80;;;8.30;99.90;;;;;;5124580;28;20235;-62
2024/03/12 07:14:29;;;;;;;10.68;8.20;;;8.40;99.90;;;;;;5125872;28;20200;-62
2024/03/12 07:16:57;;;;;;;10.48;7.88;;;8.40;99.90;;;;;;5125796;28;20644;-62
2024/03/12 07:19:25;;;;;;;10.85;8.57;;;8.50;99.90;;;;;;5127385;28;20205;-61
2024/03/12 07:21:54;;;;;;;10.38;8.25;;;8.50;99.90;;;;;;5128274;28;20306;-62
2024/03/12 07:24:21;;;;;;;10.30;8.00;;;8.50;99.90;;;;;;5124249;28;20509;-62
2024/03/12 07:26:48;;;;;;;10.35;8.55;;;8.60;99.90;;;;;;5125102;28;20211;-62
2024/03/12 07:29:15;;;;;;;8.53;7.63;;;8.70;99.90;;;;;;5128223;28;20210;-61
2024/03/12 07:31:42;;;;;;;10.63;8.13;;;8.70;99.90;;;;;;5129122;28;20531;-62
2024/03/12 07:34:10;;;;;;;11.63;8.50;;;8.80;99.90;;;;;;5122386;28;20323;-62
2024/03/12 07:36:37;;;;;;;12.75;9.05;;;8.80;99.90;;;;;;5122245;28;20437;-61
2024/03/12 07:39:10;;;;;;;12.13;8.73;;;8.90;99.90;;;;;;5121142;28;20203;-63
2024/03/12 07:41:37;;;;;;;11.68;8.70;;;9.00;99.90;;;;;;5123438;28;20219;-62
2024/03/12 07:44:06;;;;;;;11.88;8.82;;;9.00;99.90;;;;;;5123190;28;20246;-63
2024/03/12 07:46:34;;;;;;;10.80;8.20;;;9.10;99.90;;;;;;5122832;28;20257;-63
2024/03/12 07:49:01;;;;;;;13.38;9.13;;;9.10;99.90;;;;;;5123912;28;20473;-62
2024/03/12 07:51:30;;;;;;;10.93;9.00;;;9.20;99.90;;;;;;5124565;28;20627;-62
2024/03/12 07:53:59;;;;;;;15.77;9.63;;;9.20;99.90;;;;;;5126544;28;20473;-63
2024/03/12 07:56:28;;;;;;;13.50;10.10;;;9.30;99.90;;;;;;5123728;28;20199;-63
2024/03/12 07:58:56;;;;;;;12.57;8.93;;;9.30;99.90;;;;;;5124018;28;20537;-62
2024/03/12 08:01:26;;;;;;;16.87;9.90;;;9.40;99.90;;;;;;5121201;28;20521;-62
2024/03/12 08:03:53;;;;;;;17.13;11.73;;;9.40;99.90;;;;;;5123985;28;20438;-61
2024/03/12 08:06:20;;;;;;;16.60;12.07;;;9.40;99.90;;;;;;5125437;28;20553;-63
2024/03/12 08:08:49;;;;;;;20.97;13.30;;;9.40;99.90;;;;;;5130208;28;20584;-62
2024/03/12 08:11:19;;;;;;;25.67;13.90;;;9.50;99.90;;;;;;5132567;28;20479;-62
2024/03/12 08:13:47;;;;;;;21.13;15.33;;;9.50;99.90;;;;;;5130372;28;20301;-63
2024/03/12 08:16:15;;;;;;;26.13;15.70;;;9.50;99.90;;;;;;5123821;28;20442;-60
2024/03/12 08:18:42;;;;;;;21.60;15.20;;;9.50;99.90;;;;;;5119413;28;20485;-61
2024/03/12 08:21:09;;;;;;;23.33;15.03;;;9.60;99.90;;;;;;5119807;28;20445;-62
2024/03/12 08:23:36;;;;;;;26.60;15.87;;;9.60;99.90;;;;;;5122546;28;20448;-62
2024/03/12 08:26:07;;;;;;;23.67;16.30;;;9.60;99.90;;;;;;5119397;28;20451;-62
2024/03/12 08:28:34;;;;;;;23.47;17.63;;;9.60;99.90;;;;;;5119993;28;20903;-63
2024/03/12 08:31:02;;;;;;;23.50;15.95;;;9.70;99.90;;;;;;5119896;28;20446;-62
2024/03/12 08:33:29;;;;;;;20.90;15.83;;;9.80;99.90;;;;;;5120715;28;20628;-63
2024/03/12 08:35:56;;;;;;;23.03;16.10;;;9.80;99.90;;;;;;5118640;28;20441;-63
2024/03/12 08:38:23;;;;;;;21.17;15.50;;;9.90;99.90;;;;;;5117209;28;20483;-62
2024/03/12 08:40:50;;;;;;;23.50;15.73;;;9.90;99.90;;;;;;5117177;28;20441;-62
2024/03/12 08:43:18;;;;;;;24.07;16.17;;;9.90;99.90;;;;;;5117177;28;20764;-63
2024/03/12 08:45:45;;;;;;;25.77;16.40;;;9.90;99.90;;;;;;5115904;28;20456;-62
2024/03/12 08:48:11;;;;;;;21.13;14.70;;;10.00;99.90;;;;;;5115574;28;20441;-62
2024/03/12 08:50:39;;;;;;;21.23;15.57;;;10.00;99.90;;;;;;5116361;28;20437;-62
2024/03/12 08:53:05;;;;;;;25.10;16.30;;;10.00;99.90;;;;;;5115876;28;20923;-61
2024/03/12 08:55:33;;;;;;;24.97;15.70;;;10.00;99.90;;;;;;5115367;28;20954;-62
2024/03/12 08:57:59;;;;;;;25.67;16.07;;;10.00;99.90;;;;;;5116208;28;20532;-60
2024/03/12 09:00:28;;;;;;;24.83;16.53;;;10.00;99.90;;;;;;5120144;28;20540;-63
2024/03/12 09:02:55;;;;;;;23.53;16.17;;;10.00;99.90;;;;;;5119524;28;20548;-62
2024/03/12 09:05:22;;;;;;;24.73;15.30;;;10.00;99.90;;;;;;5120963;28;20445;-62
2024/03/12 09:07:49;;;;;;;23.83;15.90;;;10.00;99.90;;;;;;5120903;28;20451;-62
2024/03/12 09:10:16;;;;;;;24.33;15.70;;;10.00;99.90;;;;;;5120544;28;20445;-63
2024/03/12 09:12:43;;;;;;;20.10;15.00;;;10.00;99.90;;;;;;5119938;28;20484;-63
2024/03/12 09:15:10;;;;;;;25.43;15.63;;;10.00;99.90;;;;;;5121325;28;20445;-63
2024/03/12 09:17:39;;;;;;;25.17;17.03;;;10.00;99.90;;;;;;5120331;28;20452;-62
2024/03/12 09:20:09;;;;;;;22.10;14.50;;;10.00;99.90;;;;;;5119556;28;20449;-61
2024/03/12 09:22:36;;;;;;;28.63;16.10;;;10.00;99.90;;;;;;5120801;28;20573;-63
2024/03/12 09:25:04;;;;;;;23.03;14.57;;;10.10;99.90;;;;;;5119904;28;20441;-61
2024/03/12 09:27:31;;;;;;;23.53;15.90;;;10.10;99.90;;;;;;5119958;28;20939;-61
2024/03/12 09:29:58;;;;;;;24.10;16.53;;;10.20;99.90;;;;;;5121073;28;20445;-63
2024/03/12 09:32:25;;;;;;;20.80;15.17;;;10.40;99.90;;;;;;5121838;28;20468;-63
2024/03/12 09:34:53;;;;;;;21.93;15.37;;;10.60;99.90;;;;;;5120722;28;20560;-62
2024/03/12 09:37:20;;;;;;;18.87;13.00;;;10.80;99.90;;;;;;5120707;28;20522;-63
2024/03/12 09:39:51;;;;;;;20.00;14.47;;;10.90;99.90;;;;;;5121125;28;20517;-63
2024/03/12 09:42:21;;;;;;;16.60;12.50;;;11.00;99.90;;;;;;5121611;28;20473;-62
2024/03/12 09:44:48;;;;;;;21.80;13.83;;;11.10;99.90;;;;;;5120628;28;20441;-63
2024/03/12 09:47:15;;;;;;;20.97;15.00;;;11.10;99.90;;;;;;5120448;28;20473;-63
2024/03/12 09:49:43;;;;;;;19.70;14.30;;;11.10;99.90;;;;;;5120925;28;20468;-63
2024/03/12 09:52:12;;;;;;;17.60;13.83;;;11.00;99.90;;;;;;5120680;28;20560;-62
2024/03/12 09:54:39;;;;;;;18.93;13.57;;;11.00;99.90;;;;;;5126349;28;20469;-62
2024/03/12 09:57:10;;;;;;;19.40;14.00;;;11.00;99.90;;;;;;5131514;28;20510;-62
2024/03/12 09:59:40;;;;;;;18.60;13.87;;;11.10;99.90;;;;;;5131632;28;20505;-62
2024/03/12 10:02:07;;;;;;;18.70;13.70;;;11.40;99.90;;;;;;5123745;28;20508;-63
2024/03/12 10:04:34;;;;;;;18.60;13.37;;;11.50;99.90;;;;;;5121841;28;20437;-63
2024/03/12 10:07:01;;;;;;;19.30;12.53;;;11.60;99.90;;;;;;5122277;28;20472;-60
2024/03/12 10:09:30;;;;;;;15.67;12.53;;;11.70;99.90;;;;;;5123160;28;20439;-63
2024/03/12 10:12:01;;;;;;;20.10;14.50;;;11.80;99.90;;;;;;5128470;28;20867;-62
2024/03/12 10:14:28;;;;;;;27.60;13.23;;;12.00;99.90;;;;;;5122720;28;20529;-62
2024/03/12 10:17:11;;;;;;;18.37;13.80;;;12.20;99.90;;;;;;5119216;28;20448;-61
2024/03/12 10:19:38;;;;;;;20.00;14.70;;;12.20;99.90;;;;;;5118346;28;20847;-63
2024/03/12 10:22:08;;;;;;;19.77;12.93;;;12.20;99.90;;;;;;5118657;28;20457;-63
2024/03/12 10:24:38;;;;;;;19.10;13.63;;;12.10;99.90;;;;;;5118400;28;20485;-62
2024/03/12 10:27:06;;;;;;;19.47;13.47;;;12.10;99.90;;;;;;5118364;28;20928;-62
2024/03/12 10:29:35;;;;;;;18.50;12.80;;;12.10;99.90;;;;;;5118733;28;20506;-63
2024/03/12 10:32:18;;;;;;;19.40;13.37;;;12.00;99.90;;;;;;5119321;28;20458;-62
2024/03/12 10:34:45;;;;;;;17.57;13.10;;;11.80;99.90;;;;;;5119434;28;20468;-63
2024/03/12 10:37:26;;;;;;;18.70;13.57;;;11.80;99.90;;;;;;5120609;28;20434;-63
2024/03/12 10:39:54;;;;;;;17.60;13.93;;;11.60;99.90;;;;;;5119628;28;20429;-62
2024/03/12 10:42:22;;;;;;;20.87;14.93;;;11.50;99.90;;;;;;5119627;28;20457;-63
2024/03/12 10:44:49;;;;;;;20.97;13.73;;;11.40;99.90;;;;;;5118195;28;20441;-61
2024/03/12 10:47:17;;;;;;;20.40;14.63;;;11.30;99.90;;;;;;5119292;28;20449;-62
2024/03/12 10:49:47;;;;;;;23.73;14.83;;;11.20;99.90;;;;;;5120387;28;20449;-63
2024/03/12 10:52:16;;;;;;;19.50;14.03;;;11.20;99.90;;;;;;5120973;28;20468;-63
2024/03/12 10:54:44;;;;;;;24.03;16.70;;;11.10;99.90;;;;;;5126640;28;20479;-63
2024/03/12 10:57:13;;;;;;;18.40;13.17;;;11.20;99.90;;;;;;5128626;28;20446;-63
2024/03/12 10:59:43;;;;;;;19.73;13.57;;;11.20;99.90;;;;;;5125676;28;20453;-64
2024/03/12 11:02:11;;;;;;;17.43;12.40;;;11.30;99.90;;;;;;5122713;28;20472;-62
2024/03/12 11:04:39;;;;;;;19.77;13.87;;;11.40;99.90;;;;;;5120393;28;20469;-63
2024/03/12 11:07:08;;;;;;;15.97;13.27;;;11.50;99.90;;;;;;5120664;28;20455;-63
2024/03/12 11:09:35;;;;;;;18.80;13.37;;;11.50;99.90;;;;;;5120369;28;20461;-63
2024/03/12 11:12:04;;;;;;;22.03;14.90;;;11.50;99.90;;;;;;5119696;28;20569;-62
2024/03/12 11:14:32;;;;;;;21.97;14.97;;;11.40;99.90;;;;;;5129682;28;20461;-62
2024/03/12 11:17:00;;;;;;;19.87;14.60;;;11.30;99.90;;;;;;5131002;28;20467;-62
2024/03/12 11:19:27;;;;;;;20.03;13.90;;;11.30;99.90;;;;;;5131970;28;20469;-63
2024/03/12 11:22:01;;;;;;;21.23;13.37;;;11.30;99.90;;;;;;5129675;28;20540;-63
2024/03/12 11:24:29;;;;;;;20.37;14.63;;;11.40;99.90;;;;;;5131656;28;20501;-63
2024/03/12 11:26:59;;;;;;;19.70;14.93;;;11.30;99.90;;;;;;5129803;28;20942;-62
2024/03/12 11:30:08;;;;;;;23.33;14.30;;;11.20;99.90;;;;;;5122183;28;20429;-62
2024/03/12 11:32:36;;;;;;;22.17;15.60;;;11.10;99.90;;;;;;5118937;28;20512;-63
2024/03/12 11:35:08;;;;;;;22.90;15.83;;;11.10;99.90;;;;;;5119004;28;20497;-62
2024/03/12 11:37:35;;;;;;;21.60;16.10;;;11.00;99.90;;;;;;5117954;28;20757;-63
2024/03/12 11:40:25;;;;;;;25.10;16.83;;;10.90;99.90;;;;;;5117848;28;20445;-62
2024/03/12 11:42:52;;;;;;;26.23;15.97;;;10.90;99.90;;;;;;5118463;28;20457;-62
2024/03/12 11:45:42;;;;;;;22.33;16.50;;;10.90;99.90;;;;;;5118443;28;20444;-62
2024/03/12 11:48:09;;;;;;;23.03;15.90;;;10.90;99.90;;;;;;5117676;28;20437;-63
2024/03/12 11:50:39;;;;;;;25.00;16.60;;;10.90;99.90;;;;;;5118169;28;20818;-63
2024/03/12 11:53:20;;;;;;;22.40;17.57;;;10.90;99.90;;;;;;5119343;28;20477;-62
2024/03/12 11:55:57;;;;;;;22.53;16.47;;;10.80;99.90;;;;;;5118719;28;20436;-63
2024/03/12 11:58:26;;;;;;;22.53;16.10;;;10.80;99.90;;;;;;5118796;28;20474;-62
2024/03/12 12:00:54;;;;;;;24.40;18.00;;;10.70;99.90;;;;;;5118711;28;20445;-63
2024/03/12 12:03:21;;;;;;;26.57;17.47;;;10.80;99.90;;;;;;5118078;28;20967;-62
2024/03/12 12:05:50;;;;;;;21.43;15.13;;;10.80;99.90;;;;;;5117480;28;20448;-63
2024/03/12 12:08:18;;;;;;;29.23;18.33;;;10.80;99.90;;;;;;5117560;28;20438;-62
2024/03/12 12:10:57;;;;;;;22.00;15.70;;;10.70;99.90;;;;;;5117902;28;20509;-62
2024/03/12 12:13:25;;;;;;;23.90;15.63;;;10.60;99.90;;;;;;5117706;28;20478;-62
2024/03/12 12:16:01;;;;;;;22.17;17.20;;;10.60;99.90;;;;;;5117987;28;20441;-63
2024/03/12 12:18:29;;;;;;;24.83;17.27;;;10.60;99.90;;;;;;5117141;28;20425;-62
2024/03/12 12:20:58;;;;;;;26.03;16.53;;;10.60;99.90;;;;;;5117808;28;20437;-63
2024/03/12 12:23:26;;;;;;;21.57;15.67;;;10.60;99.90;;;;;;5121105;28;20437;-62
2024/03/12 12:25:54;;;;;;;27.27;16.60;;;10.60;99.90;;;;;;5128718;28;20442;-63
2024/03/12 12:28:24;;;;;;;26.80;16.47;;;10.50;99.90;;;;;;5127488;28;20946;-62
2024/03/12 12:30:52;;;;;;;21.37;15.80;;;10.50;99.90;;;;;;5122819;28;20440;-62
2024/03/12 12:33:20;;;;;;;19.07;15.17;;;10.50;99.90;;;;;;5122321;28;20461;-61
2024/03/12 12:35:48;;;;;;;24.90;16.13;;;10.40;99.90;;;;;;5123494;28;20520;-62
2024/03/12 12:38:17;;;;;;;27.80;16.47;;;10.20;99.90;;;;;;5123154;28;20827;-63
2024/03/12 12:40:45;;;;;;;23.03;15.70;;;10.20;99.90;;;;;;5121928;28;20445;-62
2024/03/12 12:43:16;;;;;;;21.50;15.37;;;10.20;99.90;;;;;;5121657;28;21031;-62
2024/03/12 12:45:44;;;;;;;28.40;17.60;;;10.20;99.90;;;;;;5120568;28;20417;-60
2024/03/12 12:48:12;;;;;;;22.20;14.97;;;10.20;99.90;;;;;;5120170;28;20438;-62
2024/03/12 12:50:40;;;;;;;24.87;16.17;;;10.20;99.90;;;;;;5120925;28;20489;-61
2024/03/12 12:53:09;;;;;;;25.03;15.73;;;10.20;99.90;;;;;;5120215;28;20461;-63
2024/03/12 12:55:37;;;;;;;19.37;14.50;;;10.20;99.90;;;;;;5120368;28;20473;-62
2024/03/12 12:58:06;;;;;;;20.03;14.40;;;10.20;99.90;;;;;;5123229;28;20441;-62
2024/03/12 13:00:36;;;;;;;22.57;15.83;;;10.30;99.90;;;;;;5121165;28;20548;-63